Details From ZGGG - BAIYUN INTL
To ZLXY - Xianyang
Flight Number -
Tags decoded
Created
Modified
Stats Distance 1,012 nm / 1,875 km
Max Altitude 0 ft / 0 m
Waypoints 5
Social Downloads 0
Likes 0
Share VATSIM

Download

Looking for another format? Having issues loading an existing format? Contact us
Advertisement - Login to hide

Notes

Requested: ZGGG TEPID YIN SJG OMBON ZLXY Unmatched points: SJG

Route

ZGGG TEPID YIN OMBON ZLXY

ID Type Via Altitude Latitude Longitude Leg Dist Tot Dist Heading (true) Name
O ZGGG APT - 0 ft / 0 m 23.39244˚ 113.29879˚ - 0 nm - BAIYUN INTL
TEPID FIX - 0 ft / 0 m 23.53500˚ 113.38500˚ 9 nm 9 nm 29° / 29° -
YIN VOR - 0 ft / 0 m 24.20667˚ 113.41000˚ 40 nm 50 nm 2° / 2° YINGDE VOR-DME
OMBON FIX - 0 ft / 0 m 33.35667˚ 104.27167˚ 729 nm 779 nm 321° / 317° -
O ZLXY APT - 0 ft / 0 m 34.44698˚ 108.75220˚ 232 nm 1012 nm 72° / 75° Xianyang

Altitude Profile

Advertisement - Login to hide

Weather


0- 5 10 15 20 25 30 35+ Temperature / ° C

Clouds and Precipitation
Forecast for 2017-12-11 18:00 UTC. Updated 2 hours ago

Ground ~20,000 ft ~40,000 ft Winds

ZGGG

Details ICAO ZGGG (CAN)
Name BAIYUN INTL
Region China
Timezone Asia/Shanghai (UTC+8.0)
Stats Elevation 50 ft / 15 m (AMSL)
Location 23.392439° 113.298788°
Runways 2
Magnetic Variation 2.903° W

METAR

ZGGG 111700Z 06002MPS CAVOK 16/05 Q1019 NOSIG

Decode

TAF

Not found

Departure Runways

ID Width Length Bearing (true) Bearing (mag) Surface Threshold Offset Overrun Length
02L 148 ft / 45 m 11,891 ft / 3,624 m 13.86° 16.76° Concrete 0 ft / 0 m 375 ft / 114 m
02R 197 ft / 60 m 12,554 ft / 3,827 m 13.90° 16.80° Concrete 0 ft / 0 m 380 ft / 116 m
20L 197 ft / 60 m 12,554 ft / 3,827 m 193.90° 196.80° Concrete 670 ft / 204 m 375 ft / 114 m
20R 148 ft / 45 m 11,891 ft / 3,624 m 193.86° 196.76° Concrete 0 ft / 0 m 385 ft / 117 m

ZLXY

Details ICAO ZLXY (XIY)
Name Xianyang
Region China
Timezone Asia/Chongqing (UTC+8.0)
Stats Elevation 1,571 ft / 479 m (AMSL)
Location 34.446980° 108.752203°
Runways 1
Magnetic Variation 3.585° W

METAR

ZLXY 111700Z 27001MPS 5000 HZ NSC 02/M05 Q1024 NOSIG

Decode

TAF

Not found

Destination Runways

ID Width Length Bearing (true) Bearing (mag) Surface Threshold Offset Overrun Length
05 148 ft / 45 m 9,855 ft / 3,004 m 48.69° 52.27° Concrete 0 ft / 0 m 0 ft / 0 m
23 148 ft / 45 m 9,855 ft / 3,004 m 228.71° 232.29° Concrete 0 ft / 0 m 0 ft / 0 m

Approach Navaids

Runway Type Ident Frequency Range Bearing (true) Bearing (mag) Slope Elevation
05 Localiser IGG 109.90 MHz 18 nm / 33 km 48.79° 52.37° - 1,563 ft / 476 m (AMSL)
05 Glidescope IGG 109.90 MHz 10 nm / 19 km 48.79° 52.37° 3.00° 1,563 ft / 476 m (AMSL)
23 Localiser IMM 110.30 MHz 18 nm / 33 km 228.79° 232.37° - 1,565 ft / 477 m (AMSL)
23 Glidescope IMM 110.30 MHz 10 nm / 19 km 228.79° 232.37° 3.00° 1,562 ft / 476 m (AMSL)